Time;durP1;ratioP1;P1;durP2;ratioP2;P2;SDS_P1;SDS_P2;PMS_P1;PMS_P2;Temp;Humidity;BMP_temperature;BMP_pressure;BME280_temperature;BME280_humidity;BME280_pressure;Samples;Min_cycle;Max_cycle;Signal;HPM_P1;HPM_P2
2022/11/17 00:01:04;;;;;;;9.10;3.77;;;;;;;;;;6197483;28;20026;-71
2022/11/17 00:04:04;;;;;;;9.20;4.30;;;;;;;;;;6197249;28;20061;-71
2022/11/17 00:07:04;;;;;;;10.70;4.30;;;;;;;;;;6197106;28;20038;-72
2022/11/17 00:10:05;;;;;;;8.07;4.07;;;;;;;;;;6196948;28;20027;-71
2022/11/17 00:16:24;;;;;;;7.25;3.22;;;;;;;;;;6196938;28;20014;-73
2022/11/17 00:22:43;;;;;;;5.80;2.70;;;;;;;;;;6196476;28;20030;-71
2022/11/17 00:25:43;;;;;;;5.50;2.75;;;;;;;;;;6197073;28;20085;-71
2022/11/17 00:28:43;;;;;;;5.32;2.83;;;;;;;;;;6196742;28;20026;-71
2022/11/17 00:35:02;;;;;;;5.03;2.17;;;;;;;;;;6196443;28;20498;-71
2022/11/17 00:38:14;;;;;;;6.18;3.05;;;;;;;;;;6197124;28;20033;-71
2022/11/17 00:41:15;;;;;;;8.73;3.17;;;;;;;;;;6194704;28;20014;-71
2022/11/17 00:44:15;;;;;;;5.03;1.90;;;;;;;;;;6196324;28;20023;-71
2022/11/17 00:47:15;;;;;;;5.57;3.40;;;;;;;;;;6195493;28;20475;-71
2022/11/17 00:50:15;;;;;;;4.13;2.00;;;;;;;;;;6196599;28;20014;-71
2022/11/17 00:53:16;;;;;;;3.00;2.10;;;;;;;;;;6196123;28;20015;-71
2022/11/17 00:56:16;;;;;;;5.97;3.20;;;;;;;;;;6196845;28;20487;-72
2022/11/17 00:59:16;;;;;;;3.40;2.10;;;;;;;;;;6196526;28;20580;-71
2022/11/17 01:02:16;;;;;;;1.80;1.63;;;;;;;;;;6195574;28;20014;-71
2022/11/17 01:05:17;;;;;;;3.43;2.20;;;;;;;;;;6195912;28;20070;-72
2022/11/17 01:08:17;;;;;;;3.33;2.00;;;;;;;;;;6195942;28;20014;-71
2022/11/17 01:11:18;;;;;;;3.87;2.03;;;;;;;;;;6193060;28;20367;-71
2022/11/17 01:14:20;;;;;;;6.83;2.80;;;;;;;;;;6196065;28;20021;-72
2022/11/17 01:17:20;;;;;;;;;;;;;;;;;;6194533;28;20014;-71
2022/11/17 01:20:20;;;;;;;6.13;2.85;;;;;;;;;;6195484;28;19932;-71
2022/11/17 01:23:20;;;;;;;3.10;2.47;;;;;;;;;;6196305;28;20022;-71
2022/11/17 01:26:23;;;;;;;2.90;1.83;;;;;;;;;;6196268;28;20037;-71
2022/11/17 01:29:23;;;;;;;5.20;2.30;;;;;;;;;;6195448;28;20090;-71
2022/11/17 01:32:23;;;;;;;4.72;2.40;;;;;;;;;;6196517;28;20378;-71
2022/11/17 01:35:24;;;;;;;3.60;1.97;;;;;;;;;;6194484;28;20474;-71
2022/11/17 01:38:24;;;;;;;3.97;2.30;;;;;;;;;;6196500;28;20025;-71
2022/11/17 01:41:25;;;;;;;3.97;2.13;;;;;;;;;;6199128;28;20019;-72
2022/11/17 01:44:35;;;;;;;4.32;2.42;;;;;;;;;;6201213;28;20026;-71
2022/11/17 01:47:35;;;;;;;4.65;2.17;;;;;;;;;;6200573;28;20018;-71
2022/11/17 01:50:37;;;;;;;4.35;2.65;;;;;;;;;;6199397;28;20017;-72
2022/11/17 01:53:38;;;;;;;6.97;3.10;;;;;;;;;;6200211;28;20026;-71
2022/11/17 01:56:41;;;;;;;4.97;2.70;;;;;;;;;;6199618;28;20026;-71
2022/11/17 01:59:44;;;;;;;9.15;4.40;;;;;;;;;;6196319;28;20026;-71
2022/11/17 02:02:46;;;;;;;8.18;4.75;;;;;;;;;;6199331;28;20026;-71
2022/11/17 02:06:05;;;;;;;8.23;4.90;;;;;;;;;;6199971;28;20498;-72
2022/11/17 02:09:06;;;;;;;11.27;7.22;;;;;;;;;;6199559;28;20014;-70
2022/11/17 02:12:11;;;;;;;9.20;5.28;;;;;;;;;;6199728;28;20073;-72
2022/11/17 02:15:12;;;;;;;9.23;4.30;;;;;;;;;;6200771;28;20054;-70
2022/11/17 02:18:14;;;;;;;6.57;3.00;;;;;;;;;;6198359;28;20422;-70
2022/11/17 02:21:20;;;;;;;6.72;3.47;;;;;;;;;;6199784;28;20038;-71
2022/11/17 02:24:39;;;;;;;6.22;3.33;;;;;;;;;;6196651;28;20113;-71
2022/11/17 02:28:01;;;;;;;6.15;2.15;;;;;;;;;;6199383;28;20097;-71
2022/11/17 02:31:04;;;;;;;5.00;2.92;;;;;;;;;;6198205;28;20019;-71
2022/11/17 02:34:07;;;;;;;4.57;2.63;;;;;;;;;;6199118;28;20030;-71
2022/11/17 02:37:22;;;;;;;4.18;1.70;;;;;;;;;;6199717;28;20022;-71
2022/11/17 02:40:46;;;;;;;4.95;2.15;;;;;;;;;;6196469;28;20356;-72
2022/11/17 02:44:05;;;;;;;4.22;1.92;;;;;;;;;;6198895;28;20546;-71
2022/11/17 02:47:11;;;;;;;2.88;1.70;;;;;;;;;;6198032;28;20018;-71
2022/11/17 02:50:12;;;;;;;2.05;1.70;;;;;;;;;;6194117;28;20026;-71
2022/11/17 02:53:13;;;;;;;3.47;2.43;;;;;;;;;;6199056;28;20018;-71
2022/11/17 02:56:13;;;;;;;2.17;1.53;;;;;;;;;;6199096;28;20037;-71
2022/11/17 02:59:16;;;;;;;4.22;1.85;;;;;;;;;;6198231;28;20025;-71
2022/11/17 03:02:36;;;;;;;2.22;1.70;;;;;;;;;;6198099;28;20019;-71
2022/11/17 03:05:51;;;;;;;3.10;1.50;;;;;;;;;;6198269;28;20069;-71
2022/11/17 03:08:58;;;;;;;3.30;1.55;;;;;;;;;;6197886;28;20030;-72
2022/11/17 03:12:04;;;;;;;3.22;1.60;;;;;;;;;;6193905;28;20068;-72
2022/11/17 03:15:23;;;;;;;1.55;1.15;;;;;;;;;;6198181;28;20049;-72
2022/11/17 03:18:28;;;;;;;4.28;1.50;;;;;;;;;;6197670;28;20030;-72
2022/11/17 03:21:35;;;;;;;2.35;1.52;;;;;;;;;;6190581;28;20552;-72
2022/11/17 03:24:38;;;;;;;2.15;1.45;;;;;;;;;;6197950;28;20493;-72
2022/11/17 03:27:41;;;;;;;2.80;2.15;;;;;;;;;;6198100;28;20014;-72
2022/11/17 03:30:43;;;;;;;1.98;1.60;;;;;;;;;;6197902;28;20022;-71
2022/11/17 03:33:44;;;;;;;2.63;1.85;;;;;;;;;;6198217;28;20029;-71
2022/11/17 03:36:47;;;;;;;4.87;2.47;;;;;;;;;;6198680;28;20025;-72
2022/11/17 03:39:51;;;;;;;5.03;3.00;;;;;;;;;;6199152;28;20029;-72
2022/11/17 03:42:54;;;;;;;7.22;3.75;;;;;;;;;;6193303;28;20034;-72
2022/11/17 03:45:57;;;;;;;7.22;4.30;;;;;;;;;;6198398;28;20026;-71
2022/11/17 03:49:16;;;;;;;6.95;3.72;;;;;;;;;;6197372;28;20015;-71
2022/11/17 03:52:17;;;;;;;6.57;3.55;;;;;;;;;;6197181;28;20038;-72
2022/11/17 03:55:18;;;;;;;6.77;3.53;;;;;;;;;;6197524;28;20330;-72
2022/11/17 03:58:20;;;;;;;5.07;3.20;;;;;;;;;;6196907;28;20034;-72
2022/11/17 04:01:21;;;;;;;7.82;4.85;;;;;;;;;;6196584;28;20415;-71
2022/11/17 04:04:21;;;;;;;10.38;5.28;;;;;;;;;;6197587;28;20018;-71
2022/11/17 04:07:22;;;;;;;5.70;3.87;;;;;;;;;;6195356;28;20050;-71
2022/11/17 04:10:24;;;;;;;5.10;2.70;;;;;;;;;;6197015;28;20101;-71
2022/11/17 04:16:43;;;;;;;4.65;1.95;;;;;;;;;;6196958;28;20027;-71
2022/11/17 04:19:43;;;;;;;3.62;2.20;;;;;;;;;;6197299;28;20498;-71
2022/11/17 04:22:43;;;;;;;2.05;1.60;;;;;;;;;;6196474;28;20061;-71
2022/11/17 04:29:04;;;;;;;3.67;1.65;;;;;;;;;;6196901;28;20022;-72
2022/11/17 04:32:04;;;;;;;2.66;1.40;;;;;;;;;;6179070;28;20081;-72
2022/11/17 04:35:04;;;;;;;3.80;2.38;;;;;;;;;;6196671;28;20570;-71
2022/11/17 04:38:04;;;;;;;3.67;2.83;;;;;;;;;;6197783;28;20022;-73
2022/11/17 04:44:26;;;;;;;8.65;3.25;;;;;;;;;;6196022;28;20565;-72
2022/11/17 04:47:26;;;;;;;5.05;2.88;;;;;;;;;;6192159;28;20029;-71
2022/11/17 04:50:26;;;;;;;5.20;3.40;;;;;;;;;;6197283;28;20018;-71
2022/11/17 04:53:28;;;;;;;5.17;2.80;;;;;;;;;;6196035;28;20019;-71
2022/11/17 04:56:28;;;;;;;;;;;;;;;;;;6197433;28;20019;-72
2022/11/17 04:59:28;;;;;;;4.00;3.13;;;;;;;;;;6196706;28;19910;-73
2022/11/17 05:02:29;;;;;;;5.00;3.60;;;;;;;;;;6195255;28;20487;-72
2022/11/17 05:05:29;;;;;;;6.30;3.78;;;;;;;;;;6195950;28;20044;-71
2022/11/17 05:08:29;;;;;;;11.23;4.75;;;;;;;;;;6196530;28;20022;-71
2022/11/17 05:14:49;;;;;;;8.25;4.40;;;;;;;;;;6200746;28;20113;-71
2022/11/17 05:17:49;;;;;;;6.03;3.50;;;;;;;;;;6201194;28;20404;-72
2022/11/17 05:20:49;;;;;;;5.47;2.90;;;;;;;;;;6195103;28;20069;-73
2022/11/17 05:23:55;;;;;;;4.05;2.33;;;;;;;;;;6201169;28;20376;-71
2022/11/17 05:26:55;;;;;;;4.75;3.40;;;;;;;;;;6201315;28;20014;-72
2022/11/17 05:29:55;;;;;;;5.42;2.80;;;;;;;;;;6200321;28;20014;-72
2022/11/17 05:32:56;;;;;;;4.77;2.90;;;;;;;;;;6200545;28;20631;-71
2022/11/17 05:35:56;;;;;;;6.35;3.67;;;;;;;;;;6200344;28;20385;-72
2022/11/17 05:38:56;;;;;;;9.30;4.80;;;;;;;;;;6200880;28;20019;-71
2022/11/17 05:41:56;;;;;;;10.53;6.70;;;;;;;;;;6200023;28;20014;-72
2022/11/17 05:44:56;;;;;;;3.95;3.08;;;;;;;;;;6197448;28;20080;-72
2022/11/17 05:47:57;;;;;;;4.18;2.70;;;;;;;;;;6181367;28;20018;-71
2022/11/17 05:50:57;;;;;;;4.50;2.75;;;;;;;;;;6199474;28;20022;-71
2022/11/17 05:53:57;;;;;;;2.40;1.83;;;;;;;;;;6200314;28;20022;-72
2022/11/17 05:57:01;;;;;;;4.88;2.78;;;;;;;;;;6199854;28;20065;-72
2022/11/17 06:00:03;;;;;;;3.72;2.42;;;;;;;;;;6199716;28;20501;-72
2022/11/17 06:03:23;;;;;;;6.53;3.75;;;;;;;;;;6199583;28;20486;-72
2022/11/17 06:06:24;;;;;;;6.50;2.80;;;;;;;;;;6199523;28;20058;-71
2022/11/17 06:09:30;;;;;;;3.17;2.10;;;;;;;;;;6198470;28;20077;-71
2022/11/17 06:12:30;;;;;;;6.97;2.97;;;;;;;;;;6199405;28;20026;-72
2022/11/17 06:15:31;;;;;;;6.87;2.93;;;;;;;;;;6199205;28;20026;-71
2022/11/17 06:18:33;;;;;;;9.63;4.50;;;;;;;;;;6198416;28;20018;-72
2022/11/17 06:21:34;;;;;;;8.32;4.38;;;;;;;;;;6193950;28;20030;-71
2022/11/17 06:24:35;;;;;;;7.03;4.30;;;;;;;;;;6199121;28;20541;-72
2022/11/17 06:27:37;;;;;;;9.68;5.90;;;;;;;;;;6184875;28;20117;-71
2022/11/17 06:30:37;;;;;;;7.43;4.28;;;;;;;;;;6191271;28;20026;-72
2022/11/17 06:33:38;;;;;;;8.33;5.00;;;;;;;;;;6195403;28;20181;-72
2022/11/17 06:36:38;;;;;;;5.03;3.40;;;;;;;;;;6198623;28;20030;-71
2022/11/17 06:39:38;;;;;;;5.60;4.03;;;;;;;;;;6198145;28;20049;-72
2022/11/17 06:46:03;;;;;;;4.53;3.10;;;;;;;;;;6196442;28;20030;-72
2022/11/17 06:49:06;;;;;;;7.88;4.70;;;;;;;;;;6195348;28;20109;-72
2022/11/17 06:52:06;;;;;;;2.83;1.83;;;;;;;;;;6193495;28;20028;-71
2022/11/17 06:55:07;;;;;;;3.28;2.17;;;;;;;;;;6192998;28;20030;-71
2022/11/17 06:58:10;;;;;;;3.55;1.80;;;;;;;;;;6196654;28;20367;-71
2022/11/17 07:01:11;;;;;;;6.60;2.65;;;;;;;;;;6193173;28;20114;-72
2022/11/17 07:04:11;;;;;;;9.30;3.10;;;;;;;;;;6196652;28;20478;-71
2022/11/17 07:07:12;;;;;;;4.43;2.63;;;;;;;;;;6195867;28;20228;-71
2022/11/17 07:10:12;;;;;;;6.57;4.40;;;;;;;;;;6193947;28;20044;-71
2022/11/17 07:13:12;;;;;;;7.07;3.73;;;;;;;;;;6195947;28;20015;-71
2022/11/17 07:16:14;;;;;;;8.57;2.85;;;;;;;;;;6195407;28;20277;-71
2022/11/17 07:19:14;;;;;;;5.25;2.40;;;;;;;;;;6195528;28;20116;-72
2022/11/17 07:22:14;;;;;;;4.93;2.08;;;;;;;;;;6195169;28;20021;-72
2022/11/17 07:25:15;;;;;;;3.97;2.17;;;;;;;;;;6195307;28;20167;-72
2022/11/17 07:28:15;;;;;;;3.10;1.80;;;;;;;;;;6195332;28;20838;-71
2022/11/17 07:31:15;;;;;;;4.57;2.60;;;;;;;;;;6194730;28;20030;-72
2022/11/17 07:34:15;;;;;;;4.85;2.55;;;;;;;;;;6177746;28;20536;-71
2022/11/17 07:37:15;;;;;;;7.53;4.47;;;;;;;;;;6194978;28;20113;-71
2022/11/17 07:40:16;;;;;;;4.72;2.80;;;;;;;;;;6177755;28;20045;-71
2022/11/17 07:43:16;;;;;;;4.55;2.50;;;;;;;;;;6194771;28;20102;-71
2022/11/17 07:46:16;;;;;;;7.43;3.58;;;;;;;;;;6197334;28;20026;-72
2022/11/17 07:49:16;;;;;;;5.47;3.30;;;;;;;;;;6197232;28;20022;-72
2022/11/17 07:52:16;;;;;;;5.77;3.63;;;;;;;;;;6196201;28;20026;-72
2022/11/17 07:55:17;;;;;;;7.76;3.24;;;;;;;;;;6196031;28;20666;-72
2022/11/17 07:58:17;;;;;;;3.77;2.10;;;;;;;;;;6194968;28;20018;-72
2022/11/17 08:01:17;;;;;;;2.83;2.17;;;;;;;;;;6196685;28;20030;-72
2022/11/17 08:04:18;;;;;;;7.75;3.70;;;;;;;;;;6195680;28;20026;-71
2022/11/17 08:07:18;;;;;;;5.17;2.93;;;;;;;;;;6195539;28;20046;-71
2022/11/17 08:10:19;;;;;;;4.97;2.87;;;;;;;;;;6178206;28;20041;-71
2022/11/17 08:13:19;;;;;;;6.35;3.17;;;;;;;;;;6196165;28;20499;-72
2022/11/17 08:16:19;;;;;;;5.35;2.65;;;;;;;;;;6195608;28;20026;-71
2022/11/17 08:19:19;;;;;;;7.33;3.37;;;;;;;;;;6194706;28;20029;-72
2022/11/17 08:22:20;;;;;;;9.00;4.73;;;;;;;;;;6177997;28;20030;-72
2022/11/17 08:25:21;;;;;;;7.03;4.00;;;;;;;;;;6193800;28;20022;-71
2022/11/17 08:28:21;;;;;;;8.65;3.55;;;;;;;;;;6196727;28;20265;-71
2022/11/17 08:31:21;;;;;;;4.88;3.00;;;;;;;;;;6196000;28;20471;-71
2022/11/17 08:34:22;;;;;;;4.72;3.00;;;;;;;;;;6195701;28;20277;-72
2022/11/17 08:37:22;;;;;;;6.68;4.43;;;;;;;;;;6195909;28;20277;-71
2022/11/17 08:40:22;;;;;;;7.57;5.05;;;;;;;;;;6195855;28;20474;-72
2022/11/17 08:43:22;;;;;;;7.90;4.50;;;;;;;;;;6189887;28;20034;-71
2022/11/17 08:46:23;;;;;;;7.00;3.58;;;;;;;;;;6177961;28;20038;-72
2022/11/17 08:49:23;;;;;;;4.70;2.83;;;;;;;;;;6195940;28;20502;-72
2022/11/17 08:52:23;;;;;;;3.43;2.60;;;;;;;;;;6177475;28;20015;-71
2022/11/17 08:55:25;;;;;;;6.18;3.78;;;;;;;;;;6195338;28;20042;-71
2022/11/17 08:58:25;;;;;;;4.75;3.17;;;;;;;;;;6195169;28;20352;-71
2022/11/17 09:01:25;;;;;;;5.43;3.25;;;;;;;;;;6195086;28;20030;-71
2022/11/17 09:04:26;;;;;;;10.30;4.82;;;;;;;;;;6195510;28;20441;-72
2022/11/17 09:07:26;;;;;;;4.40;3.05;;;;;;;;;;6195459;28;20060;-71
2022/11/17 09:10:26;;;;;;;5.48;3.04;;;;;;;;;;6193496;28;20716;-71
2022/11/17 09:13:26;;;;;;;10.76;5.08;;;;;;;;;;6177076;28;20022;-71
2022/11/17 09:16:26;;;;;;;9.45;5.90;;;;;;;;;;6190335;28;20026;-71
2022/11/17 09:19:27;;;;;;;6.47;3.20;;;;;;;;;;6194185;28;20533;-71
2022/11/17 09:22:27;;;;;;;3.70;2.40;;;;;;;;;;6192532;28;20494;-71
2022/11/17 09:25:28;;;;;;;5.38;3.20;;;;;;;;;;6194505;28;20430;-71
2022/11/17 09:28:28;;;;;;;5.67;2.67;;;;;;;;;;6188568;28;20023;-71
2022/11/17 09:31:28;;;;;;;7.78;3.95;;;;;;;;;;6193478;28;20115;-71
2022/11/17 09:34:28;;;;;;;5.40;3.57;;;;;;;;;;6192878;28;20069;-71
2022/11/17 09:37:29;;;;;;;7.93;4.73;;;;;;;;;;6193933;28;20033;-71
2022/11/17 09:40:29;;;;;;;10.80;6.17;;;;;;;;;;6194502;28;20109;-72
2022/11/17 09:43:32;;;;;;;5.28;3.13;;;;;;;;;;6175239;28;20109;-71
2022/11/17 09:46:44;;;;;;;6.82;4.07;;;;;;;;;;6193589;28;20021;-71
2022/11/17 09:49:49;;;;;;;7.55;4.13;;;;;;;;;;6193633;28;20015;-71
2022/11/17 09:52:52;;;;;;;5.43;2.85;;;;;;;;;;6191833;28;20113;-71
2022/11/17 09:55:54;;;;;;;5.47;3.35;;;;;;;;;;6190554;28;20092;-71
2022/11/17 09:58:54;;;;;;;;;;;;;;;;;;6194266;28;20490;-71
2022/11/17 10:01:55;;;;;;;5.25;2.67;;;;;;;;;;6195717;28;20262;-71
2022/11/17 10:04:55;;;;;;;5.90;3.53;;;;;;;;;;6196821;28;20030;-71
2022/11/17 10:07:58;;;;;;;6.02;3.94;;;;;;;;;;6197847;28;20034;-71
2022/11/17 10:10:59;;;;;;;7.55;4.68;;;;;;;;;;6198457;28;20430;-71
2022/11/17 10:14:14;;;;;;;7.13;4.70;;;;;;;;;;6197168;28;20030;-71
2022/11/17 10:17:15;;;;;;;5.68;3.50;;;;;;;;;;6196390;28;20417;-71
2022/11/17 10:20:16;;;;;;;7.65;4.78;;;;;;;;;;6195630;28;20059;-71
2022/11/17 10:23:17;;;;;;;4.85;4.00;;;;;;;;;;6196265;28;20123;-71
2022/11/17 10:26:18;;;;;;;4.90;2.70;;;;;;;;;;6197777;28;20022;-71
2022/11/17 10:29:22;;;;;;;6.83;3.20;;;;;;;;;;6196485;28;20495;-71
2022/11/17 10:32:22;;;;;;;5.82;2.83;;;;;;;;;;6197180;28;20014;-71
2022/11/17 10:35:26;;;;;;;4.60;2.85;;;;;;;;;;6197645;28;20126;-71
2022/11/17 10:38:29;;;;;;;7.43;3.30;;;;;;;;;;6194472;28;20026;-70
2022/11/17 10:41:40;;;;;;;5.22;3.33;;;;;;;;;;6195974;28;20026;-71
2022/11/17 10:44:42;;;;;;;7.60;4.87;;;;;;;;;;6196157;28;20446;-71
2022/11/17 10:47:42;;;;;;;6.80;3.80;;;;;;;;;;6195748;28;20105;-71
2022/11/17 10:51:11;;;;;;;4.97;3.20;;;;;;;;;;6194121;28;20390;-72
2022/11/17 10:54:14;;;;;;;5.72;3.13;;;;;;;;;;6167534;28;20038;-71
2022/11/17 10:57:16;;;;;;;5.90;2.85;;;;;;;;;;6193685;28;20349;-70
2022/11/17 11:00:33;;;;;;;3.40;2.35;;;;;;;;;;6194306;28;20022;-71
2022/11/17 11:03:34;;;;;;;4.35;2.92;;;;;;;;;;6193052;28;20419;-71
2022/11/17 11:06:34;;;;;;;5.40;2.83;;;;;;;;;;6193436;28;20054;-71
2022/11/17 11:09:36;;;;;;;5.47;3.72;;;;;;;;;;6193425;28;20024;-71
2022/11/17 11:12:55;;;;;;;6.15;4.57;;;;;;;;;;6194384;28;20025;-71
2022/11/17 11:15:55;;;;;;;5.60;3.30;;;;;;;;;;6196143;28;20105;-71
2022/11/17 11:18:56;;;;;;;4.83;3.43;;;;;;;;;;6195638;28;20022;-71
2022/11/17 11:22:15;;;;;;;8.97;5.70;;;;;;;;;;6196810;28;20019;-71
2022/11/17 11:25:27;;;;;;;8.13;4.40;;;;;;;;;;6196207;28;20029;-71
2022/11/17 11:28:46;;;;;;;8.52;4.88;;;;;;;;;;6194160;28;20018;-71
2022/11/17 11:32:05;;;;;;;10.80;5.82;;;;;;;;;;6195703;28;20029;-71
2022/11/17 11:35:17;;;;;;;6.50;3.95;;;;;;;;;;6196850;28;20107;-71
2022/11/17 11:38:17;;;;;;;;;;;;;;;;;;6196102;28;20478;-72
2022/11/17 11:41:22;;;;;;;7.85;4.00;;;;;;;;;;6195695;28;20324;-71
2022/11/17 11:44:25;;;;;;;7.85;4.05;;;;;;;;;;6196101;28;20580;-71
2022/11/17 11:47:35;;;;;;;9.85;6.00;;;;;;;;;;6196510;28;20029;-71
2022/11/17 11:50:50;;;;;;;10.15;6.18;;;;;;;;;;6195048;28;20037;-71
2022/11/17 11:53:50;;;;;;;11.25;5.63;;;;;;;;;;6194875;28;20092;-71
2022/11/17 11:56:51;;;;;;;6.70;4.35;;;;;;;;;;6178228;28;20034;-71
2022/11/17 11:59:54;;;;;;;9.73;4.55;;;;;;;;;;6179333;28;20273;-71
2022/11/17 12:03:02;;;;;;;8.73;4.13;;;;;;;;;;6194552;28;20410;-71
2022/11/17 12:06:39;;;;;;;11.57;4.57;;;;;;;;;;6194154;28;20409;-71
2022/11/17 12:09:26;;;;;;;10.25;6.40;;;;;;;;;;6193810;28;20034;-71
2022/11/17 12:12:31;;;;;;;8.27;4.78;;;;;;;;;;6194088;28;20029;-72
2022/11/17 12:15:34;;;;;;;9.43;5.25;;;;;;;;;;6195044;28;20383;-72
2022/11/17 12:18:34;;;;;;;9.95;5.90;;;;;;;;;;6176796;28;20022;-70
2022/11/17 12:21:35;;;;;;;9.55;5.30;;;;;;;;;;6193456;28;20037;-73
2022/11/17 12:24:39;;;;;;;10.03;5.67;;;;;;;;;;6191583;28;20019;-72
2022/11/17 12:27:40;;;;;;;8.50;5.43;;;;;;;;;;6192576;28;20019;-71
2022/11/17 12:30:44;;;;;;;8.38;5.40;;;;;;;;;;6193106;28;20030;-71
2022/11/17 12:33:53;;;;;;;12.07;7.88;;;;;;;;;;6193932;28;20107;-70
2022/11/17 12:37:11;;;;;;;14.65;9.18;;;;;;;;;;6191791;28;20545;-71
2022/11/17 12:40:38;;;;;;;11.82;7.13;;;;;;;;;;6189570;28;20574;-70
2022/11/17 12:43:38;;;;;;;10.75;7.28;;;;;;;;;;6155968;28;20037;-70
2022/11/17 12:46:39;;;;;;;11.03;6.63;;;;;;;;;;6195033;28;20022;-70
2022/11/17 12:49:57;;;;;;;13.35;7.03;;;;;;;;;;6192824;28;20429;-70
2022/11/17 12:52:58;;;;;;;11.90;7.63;;;;;;;;;;6192309;28;20048;-70
2022/11/17 12:56:08;;;;;;;10.55;5.78;;;;;;;;;;6175956;28;20038;-70
2022/11/17 12:59:20;;;;;;;7.75;5.03;;;;;;;;;;6195565;28;20173;-71
2022/11/17 13:02:20;;;;;;;9.55;5.90;;;;;;;;;;6195669;28;20032;-71
2022/11/17 13:05:22;;;;;;;12.10;7.17;;;;;;;;;;6194603;28;20050;-71
2022/11/17 13:08:22;;;;;;;12.52;7.40;;;;;;;;;;6195683;28;20033;-71
2022/11/17 13:11:23;;;;;;;14.07;7.43;;;;;;;;;;6193706;28;20026;-71
2022/11/17 13:14:23;;;;;;;7.93;5.73;;;;;;;;;;6192074;28;20030;-71
2022/11/17 13:17:27;;;;;;;11.75;6.20;;;;;;;;;;6192045;28;20526;-72
2022/11/17 13:20:28;;;;;;;10.98;6.95;;;;;;;;;;6195585;28;20101;-71
2022/11/17 13:23:30;;;;;;;10.93;5.23;;;;;;;;;;6193499;28;20092;-71
2022/11/17 13:26:36;;;;;;;10.20;5.60;;;;;;;;;;6194757;28;20359;-72
2022/11/17 13:29:36;;;;;;;9.60;5.30;;;;;;;;;;6193850;28;20077;-71
2022/11/17 13:32:37;;;;;;;9.07;5.47;;;;;;;;;;6195055;28;20061;-71
2022/11/17 13:35:37;;;;;;;7.63;4.60;;;;;;;;;;6196401;28;20025;-71
2022/11/17 13:38:45;;;;;;;9.82;5.78;;;;;;;;;;6195064;28;20406;-72
2022/11/17 13:41:45;;;;;;;10.57;5.95;;;;;;;;;;6196164;28;20122;-71
2022/11/17 13:44:46;;;;;;;8.30;4.63;;;;;;;;;;6178546;28;20034;-71
2022/11/17 13:47:47;;;;;;;13.17;5.30;;;;;;;;;;6196121;28;20486;-71
2022/11/17 13:50:47;;;;;;;11.17;5.13;;;;;;;;;;6196396;28;20022;-72
2022/11/17 13:54:06;;;;;;;13.93;7.40;;;;;;;;;;6193833;28;20041;-71
2022/11/17 13:57:07;;;;;;;10.73;6.45;;;;;;;;;;6195644;28;20021;-71
2022/11/17 14:00:14;;;;;;;11.50;6.67;;;;;;;;;;6194399;28;20414;-71
2022/11/17 14:03:44;;;;;;;12.35;6.95;;;;;;;;;;6194470;28;20069;-71
2022/11/17 14:06:51;;;;;;;7.00;5.00;;;;;;;;;;6182479;28;20049;-71
2022/11/17 14:10:09;;;;;;;10.73;5.85;;;;;;;;;;6195182;28;20019;-71
2022/11/17 14:13:15;;;;;;;10.02;5.88;;;;;;;;;;6196978;28;20042;-71
2022/11/17 14:16:20;;;;;;;10.32;5.45;;;;;;;;;;6196780;28;20037;-72
2022/11/17 14:19:20;;;;;;;11.93;5.85;;;;;;;;;;6196072;28;20018;-72
2022/11/17 14:22:21;;;;;;;12.87;7.53;;;;;;;;;;6195082;28;20395;-71
2022/11/17 14:25:21;;;;;;;13.80;8.07;;;;;;;;;;6196857;28;20027;-72
2022/11/17 14:28:22;;;;;;;15.02;7.00;;;;;;;;;;6198048;28;20051;-71
2022/11/17 14:31:22;;;;;;;13.85;7.07;;;;;;;;;;6197614;28;20249;-72
2022/11/17 14:34:22;;;;;;;17.90;9.43;;;;;;;;;;6183855;28;20030;-71
2022/11/17 14:37:24;;;;;;;10.70;6.47;;;;;;;;;;6195828;28;20030;-70
2022/11/17 14:40:24;;;;;;;15.50;7.70;;;;;;;;;;6197183;28;20035;-71
2022/11/17 14:43:24;;;;;;;9.03;5.47;;;;;;;;;;6198211;28;20058;-71
2022/11/17 14:46:25;;;;;;;12.03;7.50;;;;;;;;;;6180175;28;20024;-72
2022/11/17 14:49:25;;;;;;;12.33;5.70;;;;;;;;;;6197801;28;20026;-71
2022/11/17 14:52:25;;;;;;;9.80;5.57;;;;;;;;;;6197544;28;20010;-72
2022/11/17 14:55:25;;;;;;;14.20;7.87;;;;;;;;;;6179841;28;20351;-72
2022/11/17 14:58:26;;;;;;;12.10;6.63;;;;;;;;;;6197058;28;20021;-73
2022/11/17 15:01:28;;;;;;;11.15;6.60;;;;;;;;;;6194990;28;20029;-73
2022/11/17 15:04:28;;;;;;;15.15;7.15;;;;;;;;;;6178339;28;20081;-70
2022/11/17 15:07:28;;;;;;;13.50;7.60;;;;;;;;;;6197727;28;20050;-71
2022/11/17 15:10:28;;;;;;;17.13;8.23;;;;;;;;;;6194893;28;20474;-71
2022/11/17 15:13:29;;;;;;;16.80;9.32;;;;;;;;;;6173972;28;20490;-73
2022/11/17 15:16:29;;;;;;;15.07;8.50;;;;;;;;;;6177098;28;20026;-71
2022/11/17 15:19:29;;;;;;;14.50;7.80;;;;;;;;;;6196680;28;20425;-71
2022/11/17 15:22:29;;;;;;;16.88;8.48;;;;;;;;;;6196516;28;20022;-71
2022/11/17 15:25:29;;;;;;;15.32;8.82;;;;;;;;;;6196127;28;20096;-71
2022/11/17 15:28:30;;;;;;;16.02;8.02;;;;;;;;;;6179974;28;20007;-72
2022/11/17 15:31:30;;;;;;;13.03;8.27;;;;;;;;;;6178875;28;20512;-72
2022/11/17 15:34:30;;;;;;;13.27;7.63;;;;;;;;;;6195639;28;20042;-71
2022/11/17 15:37:30;;;;;;;17.03;9.50;;;;;;;;;;6193699;28;20034;-72
2022/11/17 15:40:30;;;;;;;15.10;7.47;;;;;;;;;;6176400;28;20077;-72
2022/11/17 15:43:32;;;;;;;16.80;8.70;;;;;;;;;;6192346;28;20444;-72
2022/11/17 15:46:32;;;;;;;23.67;10.88;;;;;;;;;;6193375;28;20281;-72
2022/11/17 15:49:32;;;;;;;16.20;10.00;;;;;;;;;;6193275;28;20089;-72
2022/11/17 15:52:32;;;;;;;17.23;10.23;;;;;;;;;;6175671;28;20273;-71
2022/11/17 15:55:33;;;;;;;19.92;10.48;;;;;;;;;;6193886;28;20022;-71
2022/11/17 15:58:34;;;;;;;22.10;10.10;;;;;;;;;;6175580;28;20501;-71
2022/11/17 16:01:35;;;;;;;14.97;8.07;;;;;;;;;;6192980;28;20026;-72
2022/11/17 16:04:35;;;;;;;21.57;9.30;;;;;;;;;;6192704;28;20020;-73
2022/11/17 16:07:36;;;;;;;17.23;9.77;;;;;;;;;;6192641;28;20034;-72
2022/11/17 16:10:36;;;;;;;16.20;8.90;;;;;;;;;;6191197;28;20109;-73
2022/11/17 16:13:36;;;;;;;19.00;7.97;;;;;;;;;;6192295;28;20045;-73
2022/11/17 16:16:37;;;;;;;16.83;7.80;;;;;;;;;;6195955;28;20026;-72
2022/11/17 16:19:37;;;;;;;17.00;8.93;;;;;;;;;;6193761;28;20026;-70
2022/11/17 16:22:37;;;;;;;12.60;6.93;;;;;;;;;;6193825;28;20023;-72
2022/11/17 16:25:38;;;;;;;16.30;9.43;;;;;;;;;;6193045;28;20092;-71
2022/11/17 16:28:39;;;;;;;15.80;8.27;;;;;;;;;;6194467;28;20049;-71
2022/11/17 16:31:39;;;;;;;15.33;7.97;;;;;;;;;;6194796;28;20249;-71
2022/11/17 16:34:40;;;;;;;12.50;6.30;;;;;;;;;;6194483;28;20027;-72
2022/11/17 16:37:41;;;;;;;11.17;5.33;;;;;;;;;;6174718;28;20054;-71
2022/11/17 16:40:41;;;;;;;19.63;8.68;;;;;;;;;;6194176;28;20021;-71
2022/11/17 16:43:42;;;;;;;13.03;6.90;;;;;;;;;;6195433;28;20386;-72
2022/11/17 16:46:43;;;;;;;12.83;6.30;;;;;;;;;;6195985;28;20018;-71
2022/11/17 16:49:44;;;;;;;10.10;6.68;;;;;;;;;;6191400;28;20775;-71
2022/11/17 16:52:44;;;;;;;17.70;8.20;;;;;;;;;;6196181;28;20449;-72
2022/11/17 16:55:44;;;;;;;10.80;5.93;;;;;;;;;;6195116;28;20398;-71
2022/11/17 16:58:47;;;;;;;14.53;8.87;;;;;;;;;;6195364;28;20026;-72
2022/11/17 17:01:47;;;;;;;13.30;8.27;;;;;;;;;;6187851;28;20084;-71
2022/11/17 17:04:48;;;;;;;12.83;6.80;;;;;;;;;;6188095;28;20356;-73
2022/11/17 17:07:49;;;;;;;11.60;7.75;;;;;;;;;;6188280;28;20050;-72
2022/11/17 17:10:49;;;;;;;11.00;5.63;;;;;;;;;;6193086;28;20072;-72
2022/11/17 17:13:49;;;;;;;13.53;6.60;;;;;;;;;;6176440;28;20082;-72
2022/11/17 17:16:49;;;;;;;11.80;6.43;;;;;;;;;;6194711;28;20018;-72
2022/11/17 17:19:50;;;;;;;11.57;6.33;;;;;;;;;;6194573;28;20026;-72
2022/11/17 17:22:50;;;;;;;9.57;5.70;;;;;;;;;;6197908;28;20039;-71
2022/11/17 17:26:03;;;;;;;11.13;6.25;;;;;;;;;;6195943;28;20113;-71
2022/11/17 17:29:04;;;;;;;10.70;5.95;;;;;;;;;;6198444;28;20014;-71
2022/11/17 17:32:04;;;;;;;9.10;4.87;;;;;;;;;;6200186;28;20101;-72
2022/11/17 17:35:05;;;;;;;9.57;5.23;;;;;;;;;;6181365;28;20018;-72
2022/11/17 17:38:05;;;;;;;11.67;5.67;;;;;;;;;;6199684;28;20022;-73
2022/11/17 17:41:07;;;;;;;10.83;4.77;;;;;;;;;;6199264;28;20033;-72
2022/11/17 17:44:07;;;;;;;12.10;6.80;;;;;;;;;;6180125;28;20026;-73
2022/11/17 17:47:07;;;;;;;12.50;6.90;;;;;;;;;;6196685;28;20057;-73
2022/11/17 17:50:08;;;;;;;10.63;6.80;;;;;;;;;;6196235;28;20539;-73
2022/11/17 17:53:08;;;;;;;11.23;6.73;;;;;;;;;;6198742;28;20022;-73
2022/11/17 17:56:09;;;;;;;12.77;6.63;;;;;;;;;;6199223;28;20370;-72
2022/11/17 17:59:10;;;;;;;13.40;7.25;;;;;;;;;;6199005;28;20416;-71
2022/11/17 18:02:10;;;;;;;14.75;7.57;;;;;;;;;;6181111;28;20038;-70
2022/11/17 18:05:10;;;;;;;15.33;8.43;;;;;;;;;;6198725;28;20293;-71
2022/11/17 18:08:10;;;;;;;11.00;6.85;;;;;;;;;;6198902;28;20097;-72
2022/11/17 18:11:12;;;;;;;15.13;8.70;;;;;;;;;;6199137;28;20014;-72
2022/11/17 18:14:12;;;;;;;17.40;9.43;;;;;;;;;;6172628;28;20033;-72
2022/11/17 18:17:12;;;;;;;19.80;9.95;;;;;;;;;;6198305;28;20477;-72
2022/11/17 18:20:12;;;;;;;18.80;9.85;;;;;;;;;;6197550;28;20022;-72
2022/11/17 18:23:13;;;;;;;21.03;10.27;;;;;;;;;;6198765;28;20165;-72
2022/11/17 18:26:16;;;;;;;19.15;9.73;;;;;;;;;;6198032;28;20018;-72
2022/11/17 18:29:16;;;;;;;19.55;10.80;;;;;;;;;;6198552;28;20470;-72
2022/11/17 18:32:17;;;;;;;24.37;12.47;;;;;;;;;;6198060;28;20092;-73
2022/11/17 18:35:17;;;;;;;25.13;12.68;;;;;;;;;;6199048;28;20018;-72